Time;durP1;ratioP1;P1;durP2;ratioP2;P2;SDS_P1;SDS_P2;PMS_P1;PMS_P2;Temp;Humidity;BMP_temperature;BMP_pressure;BME280_temperature;BME280_humidity;BME280_pressure;Samples;Min_cycle;Max_cycle;Signal;HPM_P1;HPM_P2
2023/10/13 00:02:07;;;;;;;51.58;33.58;;;;;;;;;;4991011;28;20393;-54
2023/10/13 00:04:37;;;;;;;50.95;34.67;;;;;;;;;;4991618;28;20030;-55
2023/10/13 00:07:04;;;;;;;45.10;33.83;;;;;;;;;;4994707;28;20042;-56
2023/10/13 00:09:37;;;;;;;47.92;32.35;;;;;;;;;;5005838;28;20049;-56
2023/10/13 00:12:03;;;;;;;48.60;34.83;;;;;;;;;;5009176;28;20121;-57
2023/10/13 00:14:37;;;;;;;45.65;32.05;;;;;;;;;;5009371;28;20398;-55
2023/10/13 00:17:04;;;;;;;50.95;33.13;;;;;;;;;;5010729;28;20024;-57
2023/10/13 00:19:37;;;;;;;45.15;32.63;;;;;;;;;;5010556;28;20087;-55
2023/10/13 00:22:08;;;;;;;42.92;30.90;;;;;;;;;;5018484;28;20013;-55
2023/10/13 00:24:42;;;;;;;45.25;30.88;;;;;;;;;;5016841;28;20624;-55
2023/10/13 00:27:11;;;;;;;48.22;30.92;;;;;;;;;;5013852;28;20076;-56
2023/10/13 00:29:37;;;;;;;46.92;31.50;;;;;;;;;;5021284;28;20045;-53
2023/10/13 00:32:06;;;;;;;42.95;29.65;;;;;;;;;;5011282;28;20103;-56
2023/10/13 00:34:32;;;;;;;45.97;29.92;;;;;;;;;;5010587;28;20137;-53
2023/10/13 00:39:46;;;;;;;38.72;27.92;;;;;;;;;;5010378;28;20095;-57
2023/10/13 00:42:19;;;;;;;41.53;28.42;;;;;;;;;;5009946;28;20396;-56
2023/10/13 00:44:49;;;;;;;41.50;29.48;;;;;;;;;;5010553;28;20495;-55
2023/10/13 00:50:03;;;;;;;39.40;26.65;;;;;;;;;;5010112;28;20026;-57
2023/10/13 00:52:30;;;;;;;40.58;26.63;;;;;;;;;;5008614;28;20153;-56
2023/10/13 00:54:59;;;;;;;37.83;24.98;;;;;;;;;;5009999;28;20503;-58
2023/10/13 00:57:26;;;;;;;48.20;24.52;;;;;;;;;;5010290;28;20588;-53
2023/10/13 00:59:53;;;;;;;36.17;25.30;;;;;;;;;;5009929;28;20025;-57
2023/10/13 01:02:37;;;;;;;39.50;24.90;;;;;;;;;;5009734;28;20065;-55
2023/10/13 01:05:11;;;;;;;40.25;26.13;;;;;;;;;;5010277;28;20033;-52
2023/10/13 01:07:37;;;;;;;39.17;25.75;;;;;;;;;;5010287;28;20026;-54
2023/10/13 01:10:04;;;;;;;36.25;24.92;;;;;;;;;;5009929;28;20030;-56
2023/10/13 01:12:30;;;;;;;34.88;23.77;;;;;;;;;;5009645;28;20075;-56
2023/10/13 01:14:57;;;;;;;36.53;24.02;;;;;;;;;;5008364;28;20032;-57
2023/10/13 01:17:23;;;;;;;35.10;23.63;;;;;;;;;;5010173;28;20030;-54
2023/10/13 01:19:50;;;;;;;38.00;24.65;;;;;;;;;;5009985;28;20026;-56
2023/10/13 01:22:16;;;;;;;35.03;22.35;;;;;;;;;;5009658;28;20026;-58
2023/10/13 01:24:42;;;;;;;36.22;23.40;;;;;;;;;;5010498;28;20088;-55
2023/10/13 01:27:17;;;;;;;35.10;22.08;;;;;;;;;;5017225;28;20121;-56
2023/10/13 01:30:05;;;;;;;35.08;23.17;;;;;;;;;;5010114;28;20032;-56
2023/10/13 01:32:31;;;;;;;34.70;22.25;;;;;;;;;;5016660;28;20484;-54
2023/10/13 01:35:05;;;;;;;32.17;22.13;;;;;;;;;;5010036;28;20064;-51
2023/10/13 01:37:31;;;;;;;36.63;23.77;;;;;;;;;;5010314;28;20018;-52
2023/10/13 01:39:57;;;;;;;34.70;23.05;;;;;;;;;;5009777;28;20029;-55
2023/10/13 01:42:24;;;;;;;31.65;21.30;;;;;;;;;;5009502;28;20404;-56
2023/10/13 01:44:50;;;;;;;34.10;21.67;;;;;;;;;;5010154;28;20018;-54
2023/10/13 01:47:16;;;;;;;33.28;22.10;;;;;;;;;;5010122;28;20068;-53
2023/10/13 01:49:46;;;;;;;34.85;22.50;;;;;;;;;;5009862;28;20061;-55
2023/10/13 01:52:15;;;;;;;34.30;21.25;;;;;;;;;;5009422;28;20113;-55
2023/10/13 01:54:44;;;;;;;33.60;21.10;;;;;;;;;;5009978;28;20033;-53
2023/10/13 01:57:14;;;;;;;34.47;21.70;;;;;;;;;;5009843;28;20030;-56
2023/10/13 01:59:43;;;;;;;30.48;20.60;;;;;;;;;;5009896;28;20484;-52
2023/10/13 02:02:12;;;;;;;35.58;21.23;;;;;;;;;;5011777;28;20435;-58
2023/10/13 02:04:42;;;;;;;31.55;21.90;;;;;;;;;;5013308;28;20025;-55
2023/10/13 02:07:08;;;;;;;34.70;19.67;;;;;;;;;;5013356;28;20026;-54
2023/10/13 02:09:37;;;;;;;33.35;20.38;;;;;;;;;;5011746;28;20114;-53
2023/10/13 02:12:03;;;;;;;;;;;;;;;;;;5013331;28;20018;-53
2023/10/13 02:14:32;;;;;;;32.33;20.63;;;;;;;;;;5011784;28;19916;-56
2023/10/13 02:17:16;;;;;;;33.30;21.17;;;;;;;;;;5013178;28;20072;-56
2023/10/13 02:19:45;;;;;;;33.17;21.10;;;;;;;;;;5013004;28;20608;-57
2023/10/13 02:22:11;;;;;;;36.70;20.92;;;;;;;;;;5012571;28;20045;-57
2023/10/13 02:24:40;;;;;;;31.52;21.10;;;;;;;;;;5013495;28;20084;-54
2023/10/13 02:27:13;;;;;;;33.83;20.90;;;;;;;;;;5013174;28;20050;-56
2023/10/13 02:29:45;;;;;;;30.55;20.35;;;;;;;;;;5012858;28;20022;-58
2023/10/13 02:32:21;;;;;;;36.35;21.50;;;;;;;;;;5012744;28;20022;-53
2023/10/13 02:34:47;;;;;;;32.28;20.50;;;;;;;;;;5012988;28;20030;-57
2023/10/13 02:37:13;;;;;;;32.13;20.75;;;;;;;;;;5019651;28;20030;-56
2023/10/13 02:39:43;;;;;;;36.35;22.65;;;;;;;;;;5012798;28;20014;-55
2023/10/13 02:42:24;;;;;;;32.08;19.85;;;;;;;;;;5012449;28;20038;-55
2023/10/13 02:44:50;;;;;;;30.38;20.33;;;;;;;;;;5012968;28;20036;-55
2023/10/13 02:47:19;;;;;;;32.45;20.10;;;;;;;;;;5013039;28;20022;-56
2023/10/13 02:49:47;;;;;;;32.60;20.48;;;;;;;;;;5011696;28;20025;-59
2023/10/13 02:52:13;;;;;;;31.33;20.77;;;;;;;;;;5015801;28;20407;-57
2023/10/13 02:54:46;;;;;;;37.38;20.48;;;;;;;;;;5016584;28;20447;-58
2023/10/13 02:57:12;;;;;;;35.28;20.63;;;;;;;;;;5012816;28;20050;-58
2023/10/13 02:59:46;;;;;;;31.35;20.00;;;;;;;;;;5012647;28;20018;-57
2023/10/13 03:02:29;;;;;;;30.88;20.90;;;;;;;;;;5011209;28;20069;-57
2023/10/13 03:04:59;;;;;;;32.97;20.65;;;;;;;;;;5011328;28;20030;-55
2023/10/13 03:07:28;;;;;;;30.02;19.38;;;;;;;;;;5012742;28;20049;-58
2023/10/13 03:09:57;;;;;;;34.65;20.42;;;;;;;;;;5012571;28;20029;-57
2023/10/13 03:12:24;;;;;;;32.40;20.83;;;;;;;;;;5010967;28;20022;-57
2023/10/13 03:15:11;;;;;;;32.70;20.75;;;;;;;;;;5011017;28;20036;-56
2023/10/13 03:17:43;;;;;;;30.80;18.92;;;;;;;;;;5011289;28;20022;-57
2023/10/13 03:20:11;;;;;;;34.30;19.42;;;;;;;;;;5010764;28;20030;-56
2023/10/13 03:22:37;;;;;;;32.45;20.25;;;;;;;;;;5012155;28;20604;-55
2023/10/13 03:25:08;;;;;;;36.35;20.80;;;;;;;;;;5012241;28;20026;-57
2023/10/13 03:28:00;;;;;;;30.90;18.38;;;;;;;;;;5012853;28;20188;-57
2023/10/13 03:30:38;;;;;;;32.65;19.35;;;;;;;;;;5011942;28;20026;-55
2023/10/13 03:33:07;;;;;;;34.80;18.77;;;;;;;;;;5012338;28;20041;-57
2023/10/13 03:35:43;;;;;;;30.60;19.80;;;;;;;;;;5010358;28;20029;-52
2023/10/13 03:38:19;;;;;;;28.55;18.27;;;;;;;;;;5012473;28;20018;-57
2023/10/13 03:41:19;;;;;;;31.30;18.02;;;;;;;;;;5012243;28;20033;-54
2023/10/13 03:43:52;;;;;;;27.42;17.92;;;;;;;;;;5012663;28;20030;-57
2023/10/13 03:46:21;;;;;;;30.15;18.40;;;;;;;;;;5012160;28;20021;-57
2023/10/13 03:49:01;;;;;;;33.20;19.75;;;;;;;;;;5012242;28;20044;-56
2023/10/13 03:51:38;;;;;;;30.40;17.50;;;;;;;;;;5009948;28;20033;-54
2023/10/13 03:54:08;;;;;;;27.00;17.60;;;;;;;;;;5011602;28;20025;-56
2023/10/13 03:56:40;;;;;;;31.85;18.52;;;;;;;;;;5010645;28;20018;-55
2023/10/13 03:59:09;;;;;;;30.88;17.80;;;;;;;;;;5012485;28;20073;-56
2023/10/13 04:01:46;;;;;;;29.15;17.38;;;;;;;;;;5011463;28;20456;-58
2023/10/13 04:04:29;;;;;;;30.65;17.90;;;;;;;;;;5011434;28;20104;-57
2023/10/13 04:07:13;;;;;;;31.63;18.02;;;;;;;;;;5010416;28;20033;-56
2023/10/13 04:17:25;;;;;;;26.85;16.58;;;;;;;;;;5011660;28;20030;-53
2023/10/13 04:38:55;;;;;;;28.45;19.30;;;;;;;;;;5010473;28;20033;-56
2023/10/13 04:41:23;;;;;;;28.65;19.98;;;;;;;;;;5009099;28;20018;-58
2023/10/13 04:44:04;;;;;;;28.65;19.00;;;;;;;;;;5008954;28;20026;-56
2023/10/13 04:49:28;;;;;;;26.08;18.10;;;;;;;;;;5010179;28;20041;-57
2023/10/13 04:54:33;;;;;;;32.40;20.08;;;;;;;;;;5010119;28;20025;-59
2023/10/13 05:51:46;;;;;;;;;;;;;;;;;;;;;
2023/10/13 06:29:35;;;;;;;44.45;36.92;;;;;;;;;;5072996;28;20399;-49
2023/10/13 06:32:01;;;;;;;40.83;36.50;;;;;;;;;;5064202;28;20106;-51
2023/10/13 06:34:44;;;;;;;41.35;35.45;;;;;;;;;;5072777;28;20032;-49
2023/10/13 06:37:30;;;;;;;39.80;35.25;;;;;;;;;;5055157;28;20044;-53
2023/10/13 06:39:56;;;;;;;37.67;33.47;;;;;;;;;;5072834;28;20024;-50
2023/10/13 06:42:34;;;;;;;37.35;33.50;;;;;;;;;;5054549;28;20020;-49
2023/10/13 06:45:08;;;;;;;36.40;32.60;;;;;;;;;;5054601;28;20025;-52
2023/10/13 06:47:39;;;;;;;38.60;32.20;;;;;;;;;;5072584;28;20051;-51
2023/10/13 06:50:15;;;;;;;35.33;31.65;;;;;;;;;;5054343;28;20033;-52
2023/10/13 06:52:41;;;;;;;35.72;32.03;;;;;;;;;;5072624;28;20036;-50
2023/10/13 06:55:10;;;;;;;34.15;30.52;;;;;;;;;;5054979;28;20103;-49
2023/10/13 06:57:36;;;;;;;32.50;29.02;;;;;;;;;;5072703;28;20024;-49
2023/10/13 07:00:08;;;;;;;32.45;29.00;;;;;;;;;;5072250;28;20096;-50
2023/10/13 07:02:34;;;;;;;33.50;29.52;;;;;;;;;;5054122;28;20089;-51
2023/10/13 07:05:07;;;;;;;32.47;28.90;;;;;;;;;;5072332;28;20028;-50
2023/10/13 07:07:33;;;;;;;32.45;29.10;;;;;;;;;;5072368;28;20111;-50
2023/10/13 07:09:59;;;;;;;32.45;29.15;;;;;;;;;;5072700;28;20040;-51
2023/10/13 07:12:33;;;;;;;33.72;30.10;;;;;;;;;;5053992;28;20032;-51
2023/10/13 07:15:33;;;;;;;34.65;31.20;;;;;;;;;;5072340;28;20031;-49
2023/10/13 07:17:59;;;;;;;36.38;28.60;;;;;;;;;;5067872;28;20032;-50
2023/10/13 07:23:02;;;;;;;31.33;28.17;;;;;;;;;;5072182;28;20029;-54
2023/10/13 07:25:32;;;;;;;31.58;27.48;;;;;;;;;;5071735;28;20021;-55
2023/10/13 07:27:58;;;;;;;33.05;29.75;;;;;;;;;;5071895;28;20037;-49
2023/10/13 07:30:26;;;;;;;32.80;29.45;;;;;;;;;;5053240;28;20402;-53
2023/10/13 07:32:53;;;;;;;32.97;29.50;;;;;;;;;;5053799;28;20051;-54
2023/10/13 07:35:20;;;;;;;31.90;28.70;;;;;;;;;;5071739;28;20032;-54
2023/10/13 07:37:52;;;;;;;31.05;27.75;;;;;;;;;;5071878;28;20020;-54
2023/10/13 07:43:00;;;;;;;31.35;27.95;;;;;;;;;;5072531;28;20116;-50
2023/10/13 07:45:35;;;;;;;29.10;26.20;;;;;;;;;;5072749;28;20036;-51
2023/10/13 07:48:07;;;;;;;29.60;26.65;;;;;;;;;;5071710;28;20035;-54
2023/10/13 07:50:34;;;;;;;28.10;25.10;;;;;;;;;;5070831;28;20111;-52
2023/10/13 07:53:22;;;;;;;30.00;26.40;;;;;;;;;;5048061;28;20044;-51
2023/10/13 07:55:46;;;;;;;33.20;26.83;;;;;;;;;;5070753;28;20111;-52
2023/10/13 07:58:13;;;;;;;26.90;24.20;;;;;;;;;;5070898;28;20527;-51
2023/10/13 08:08:26;;;;;;;27.65;24.58;;;;;;;;;;5064643;28;20059;-51
2023/10/13 08:10:55;;;;;;;30.30;24.95;;;;;;;;;;5053172;28;20051;-50
2023/10/13 08:13:22;;;;;;;28.65;24.58;;;;;;;;;;5071480;28;20040;-50
2023/10/13 08:15:48;;;;;;;28.13;24.02;;;;;;;;;;5071328;28;20020;-52
2023/10/13 08:18:19;;;;;;;27.63;24.27;;;;;;;;;;5052466;28;20024;-53
2023/10/13 08:20:47;;;;;;;27.17;23.90;;;;;;;;;;5070429;28;20051;-51
2023/10/13 08:23:13;;;;;;;28.47;25.43;;;;;;;;;;5053106;28;20071;-54
2023/10/13 08:31:25;;;;;;;26.85;23.88;;;;;;;;;;5071042;28;20024;-49
2023/10/13 08:34:05;;;;;;;29.67;23.83;;;;;;;;;;5053456;28;20028;-48
2023/10/13 08:36:31;;;;;;;26.23;23.40;;;;;;;;;;5071008;28;20024;-51
2023/10/13 08:38:57;;;;;;;29.73;24.73;;;;;;;;;;5071130;28;20052;-53
2023/10/13 08:43:53;;;;;;;25.73;23.02;;;;;;;;;;5070194;28;20025;-50
2023/10/13 08:46:29;;;;;;;26.40;23.75;;;;;;;;;;5043831;28;20517;-51
2023/10/13 08:52:05;;;;;;;26.13;23.50;;;;;;;;;;5052712;28;20024;-50
2023/10/13 08:54:39;;;;;;;24.48;21.50;;;;;;;;;;5069713;28;20107;-52
2023/10/13 08:57:53;;;;;;;24.35;21.17;;;;;;;;;;5053188;28;20138;-52
2023/10/13 08:59:55;;;;;;;28.13;22.98;;;;;;;;;;5056492;28;20033;-54
2023/10/13 09:02:52;;;;;;;24.13;20.80;;;;;;;;;;5070460;28;20021;-49
2023/10/13 09:05:41;;;;;;;22.92;20.10;;;;;;;;;;5070360;28;20029;-54
2023/10/13 09:07:55;;;;;;;23.27;20.80;;;;;;;;;;5070363;28;20028;-51
2023/10/13 09:11:11;;;;;;;21.88;19.60;;;;;;;;;;5052589;28;20426;-52
2023/10/13 09:13:20;;;;;;;20.25;17.95;;;;;;;;;;5064313;28;20044;-52
2023/10/13 09:16:01;;;;;;;21.77;16.60;;;;;;;;;;5074919;28;20021;-54
2023/10/13 09:21:43;;;;;;;;;;;;;;;;;;5029632;28;20064;-50
2023/10/13 09:24:43;;;;;;;22.52;16.17;;;;;;;;;;5075968;28;20414;-48
2023/10/13 09:27:04;;;;;;;21.90;16.75;;;;;;;;;;5070826;28;20075;-50
2023/10/13 09:29:38;;;;;;;20.35;15.57;;;;;;;;;;5074309;28;20073;-50
2023/10/13 09:32:11;;;;;;;20.40;14.98;;;;;;;;;;5074513;28;20043;-52
2023/10/13 09:34:40;;;;;;;20.83;13.77;;;;;;;;;;5074181;28;20486;-50
2023/10/13 09:37:06;;;;;;;19.55;13.55;;;;;;;;;;5090136;28;20025;-55
2023/10/13 09:42:12;;;;;;;17.77;12.25;;;;;;;;;;5074184;28;20035;-52
2023/10/13 09:44:40;;;;;;;19.10;12.70;;;;;;;;;;5074293;28;20023;-52
2023/10/13 09:47:09;;;;;;;21.47;12.93;;;;;;;;;;5074334;28;20040;-51
2023/10/13 09:49:44;;;;;;;20.05;12.23;;;;;;;;;;5089865;28;20680;-49
2023/10/13 09:52:18;;;;;;;18.88;12.85;;;;;;;;;;5072686;28;20363;-51
2023/10/13 09:54:48;;;;;;;22.30;12.45;;;;;;;;;;5071261;28;20490;-52
2023/10/13 09:57:19;;;;;;;21.52;12.50;;;;;;;;;;5055633;28;20017;-53
2023/10/13 09:59:53;;;;;;;19.60;12.73;;;;;;;;;;5055581;28;20066;-52
2023/10/13 10:02:26;;;;;;;21.73;13.07;;;;;;;;;;5060403;28;20028;-53
2023/10/13 10:05:21;;;;;;;21.05;12.70;;;;;;;;;;5068436;28;20025;-52
2023/10/13 10:07:55;;;;;;;19.90;13.27;;;;;;;;;;5053380;28;20031;-54
2023/10/13 10:10:25;;;;;;;20.80;12.40;;;;;;;;;;5072868;28;20036;-54
2023/10/13 10:13:20;;;;;;;21.50;11.75;;;;;;;;;;5073618;28;20047;-50
2023/10/13 10:15:47;;;;;;;19.77;12.20;;;;;;;;;;4983918;28;20193;-50
2023/10/13 10:18:25;;;;;;;23.10;13.13;;;;;;;;;;5073512;28;20441;-54
2023/10/13 10:20:52;;;;;;;21.20;12.60;;;;;;;;;;5069139;28;20043;-54
2023/10/13 10:23:35;;;;;;;18.48;12.07;;;;;;;;;;5071075;28;20021;-50
2023/10/13 10:26:11;;;;;;;21.65;12.15;;;;;;;;;;5072181;28;20429;-51
2023/10/13 10:28:41;;;;;;;17.77;11.60;;;;;;;;;;5072451;28;20020;-54
2023/10/13 10:31:10;;;;;;;24.52;12.40;;;;;;;;;;5053321;28;20050;-52
2023/10/13 10:33:36;;;;;;;;;;;;;;;;;;5072252;28;20043;-53
2023/10/13 10:36:02;;;;;;;21.15;12.63;;;;;;;;;;5071864;28;19908;-50
2023/10/13 10:40:57;;;;;;;18.55;11.70;;;;;;;;;;5074506;28;20040;-49
2023/10/13 10:43:41;;;;;;;23.27;13.88;;;;;;;;;;5073713;28;20024;-48
2023/10/13 10:46:07;;;;;;;18.77;12.23;;;;;;;;;;5073332;28;20024;-50
2023/10/13 10:48:38;;;;;;;21.23;12.73;;;;;;;;;;5055300;28;20033;-51
2023/10/13 10:51:21;;;;;;;20.77;11.88;;;;;;;;;;5072455;28;20188;-48
2023/10/13 10:53:49;;;;;;;21.30;12.20;;;;;;;;;;5088532;28;20020;-53
2023/10/13 10:59:00;;;;;;;19.58;11.68;;;;;;;;;;5073596;28;20089;-47
2023/10/13 11:01:33;;;;;;;21.35;12.80;;;;;;;;;;5070451;28;20378;-53
2023/10/13 11:04:24;;;;;;;22.00;11.88;;;;;;;;;;5069517;28;20422;-50
2023/10/13 11:06:56;;;;;;;19.85;12.40;;;;;;;;;;5065939;28;20131;-48
2023/10/13 11:11:52;;;;;;;21.23;12.60;;;;;;;;;;5051641;28;20128;-53
2023/10/13 11:14:25;;;;;;;26.80;13.43;;;;;;;;;;5088611;28;20104;-48
2023/10/13 11:16:59;;;;;;;24.05;12.23;;;;;;;;;;5068351;28;20107;-51
2023/10/13 11:19:35;;;;;;;23.35;13.27;;;;;;;;;;5070536;28;20104;-48
2023/10/13 11:22:29;;;;;;;22.48;12.80;;;;;;;;;;5069435;28;20044;-52
2023/10/13 11:24:55;;;;;;;20.13;12.52;;;;;;;;;;5071575;28;20028;-50
2023/10/13 11:27:36;;;;;;;23.88;12.68;;;;;;;;;;5071637;28;20036;-48
2023/10/13 11:30:05;;;;;;;18.65;11.90;;;;;;;;;;5069770;28;20024;-50
2023/10/13 11:32:31;;;;;;;22.90;13.23;;;;;;;;;;5071093;28;20020;-52
2023/10/13 11:34:57;;;;;;;26.70;12.90;;;;;;;;;;5070018;28;20051;-51
2023/10/13 11:37:37;;;;;;;19.50;11.77;;;;;;;;;;5071582;28;20021;-52
2023/10/13 11:40:12;;;;;;;19.92;12.52;;;;;;;;;;5053328;28;20016;-48
2023/10/13 11:42:43;;;;;;;21.17;12.93;;;;;;;;;;5070998;28;20542;-49
2023/10/13 11:48:00;;;;;;;18.90;13.13;;;;;;;;;;5069031;22;20064;-48
2023/10/13 11:50:33;;;;;;;21.20;12.68;;;;;;;;;;5052121;28;20394;-54
2023/10/13 11:52:59;;;;;;;22.42;11.90;;;;;;;;;;5047937;28;20063;-54
2023/10/13 11:55:26;;;;;;;22.58;13.02;;;;;;;;;;5050350;28;20388;-51
2023/10/13 11:57:52;;;;;;;21.65;12.02;;;;;;;;;;5050283;28;20105;-52
2023/10/13 12:00:50;;;;;;;25.88;14.15;;;;;;;;;;5033312;28;20101;-56
2023/10/13 12:08:38;;;;;;;21.30;12.80;;;;;;;;;;5033644;28;20087;-53
2023/10/13 12:11:30;;;;;;;22.63;13.63;;;;;;;;;;5028728;28;20021;-53
2023/10/13 12:13:50;;;;;;;22.05;11.85;;;;;;;;;;5030396;28;20061;-55
2023/10/13 12:16:19;;;;;;;21.67;12.30;;;;;;;;;;5030111;28;20033;-49
2023/10/13 12:18:45;;;;;;;22.63;14.52;;;;;;;;;;5013375;28;20030;-50
2023/10/13 12:21:18;;;;;;;22.15;12.88;;;;;;;;;;5029707;28;20436;-51
2023/10/13 12:23:45;;;;;;;21.95;13.35;;;;;;;;;;5012728;28;20117;-53
2023/10/13 12:26:32;;;;;;;19.48;12.52;;;;;;;;;;5030499;28;20187;-51
2023/10/13 12:29:06;;;;;;;26.48;14.73;;;;;;;;;;5029990;28;20021;-51
2023/10/13 12:31:32;;;;;;;24.10;13.57;;;;;;;;;;5029711;28;20017;-50
2023/10/13 12:34:06;;;;;;;23.95;13.68;;;;;;;;;;5045456;28;20155;-50
2023/10/13 12:36:41;;;;;;;21.98;14.35;;;;;;;;;;5045406;28;20120;-49
2023/10/13 12:52:16;;;;;;;19.45;14.02;;;;;;;;;;5029708;28;20030;-51
2023/10/13 12:57:26;;;;;;;21.33;14.02;;;;;;;;;;5030230;28;20088;-54
2023/10/13 12:59:56;;;;;;;22.95;14.90;;;;;;;;;;5029542;28;20152;-51
2023/10/13 13:02:24;;;;;;;20.00;16.17;;;;;;;;;;5029453;28;20018;-53
2023/10/13 13:05:11;;;;;;;;;;;;;;;;;;5030222;28;20022;-49
2023/10/13 13:07:46;;;;;;;22.88;15.07;;;;;;;;;;5029877;28;19928;-52
2023/10/13 13:10:13;;;;;;;21.00;14.55;;;;;;;;;;5028792;28;20075;-52
2023/10/13 13:12:39;;;;;;;23.67;15.10;;;;;;;;;;5029910;28;20033;-49
2023/10/13 13:15:08;;;;;;;23.98;14.27;;;;;;;;;;5029319;28;20062;-49
2023/10/13 13:17:35;;;;;;;22.90;14.68;;;;;;;;;;5045126;28;20047;-53
2023/10/13 13:20:10;;;;;;;21.65;14.68;;;;;;;;;;5029523;28;20068;-52
2023/10/13 13:22:36;;;;;;;22.75;14.02;;;;;;;;;;5029261;28;20029;-53
2023/10/13 13:25:07;;;;;;;25.83;15.02;;;;;;;;;;5027712;28;20571;-54
2023/10/13 13:27:33;;;;;;;26.00;16.45;;;;;;;;;;5026491;28;20025;-51
2023/10/13 13:29:59;;;;;;;21.77;14.65;;;;;;;;;;5029330;28;20073;-54
2023/10/13 13:32:25;;;;;;;24.48;14.77;;;;;;;;;;5034935;28;20419;-53
2023/10/13 13:34:58;;;;;;;26.95;14.52;;;;;;;;;;5028857;28;20498;-54
2023/10/13 13:37:27;;;;;;;23.30;15.32;;;;;;;;;;5029311;28;20022;-54
2023/10/13 13:39:53;;;;;;;24.85;15.02;;;;;;;;;;5036855;28;20025;-56
2023/10/13 13:42:20;;;;;;;25.08;14.73;;;;;;;;;;5042038;28;20052;-53
2023/10/13 13:44:49;;;;;;;23.67;15.85;;;;;;;;;;5026245;28;20068;-51
2023/10/13 13:47:15;;;;;;;21.48;14.93;;;;;;;;;;5031434;28;20504;-54
2023/10/13 13:49:50;;;;;;;25.75;16.33;;;;;;;;;;5022284;28;20180;-56
2023/10/13 13:52:17;;;;;;;22.48;16.42;;;;;;;;;;5028640;28;20646;-50
2023/10/13 13:54:44;;;;;;;26.30;15.95;;;;;;;;;;5028566;28;20029;-50
2023/10/13 13:57:12;;;;;;;24.30;15.70;;;;;;;;;;5029864;28;20034;-49
2023/10/13 13:59:38;;;;;;;20.58;14.90;;;;;;;;;;5032256;28;20043;-50
2023/10/13 14:02:19;;;;;;;25.98;17.35;;;;;;;;;;5032333;28;20456;-48
2023/10/13 14:04:46;;;;;;;20.88;14.52;;;;;;;;;;5032770;28;20626;-53
2023/10/13 14:07:12;;;;;;;22.42;15.45;;;;;;;;;;5032198;28;20038;-52
2023/10/13 14:09:43;;;;;;;;;;;;;;;;;;5032861;28;20044;-56
2023/10/13 14:14:57;;;;;;;21.92;14.85;;;;;;;;;;5032558;28;20108;-52
2023/10/13 14:17:30;;;;;;;21.15;14.82;;;;;;;;;;4681853;28;9999928;-50
2023/10/13 14:19:57;;;;;;;23.25;14.60;;;;;;;;;;5028983;28;20030;-51
2023/10/13 14:22:24;;;;;;;21.60;14.50;;;;;;;;;;5033081;28;20029;-52
2023/10/13 14:24:58;;;;;;;24.20;15.27;;;;;;;;;;5049284;28;20025;-54
2023/10/13 14:27:25;;;;;;;21.70;14.25;;;;;;;;;;5048948;28;20025;-52
2023/10/13 14:29:55;;;;;;;22.40;14.20;;;;;;;;;;5042610;28;20041;-50
2023/10/13 14:32:24;;;;;;;23.30;14.50;;;;;;;;;;5028582;28;20029;-51
2023/10/13 14:34:54;;;;;;;25.40;14.93;;;;;;;;;;5011055;28;20057;-52
2023/10/13 14:37:41;;;;;;;23.60;14.52;;;;;;;;;;5028986;28;20032;-52
2023/10/13 14:40:12;;;;;;;24.15;15.73;;;;;;;;;;5027774;28;20479;-51
2023/10/13 14:42:40;;;;;;;24.63;14.48;;;;;;;;;;5027246;28;20053;-54
2023/10/13 14:45:12;;;;;;;22.33;13.93;;;;;;;;;;5028620;28;20041;-54
2023/10/13 14:47:39;;;;;;;24.05;14.82;;;;;;;;;;5028557;28;20117;-55
2023/10/13 14:50:05;;;;;;;25.30;14.48;;;;;;;;;;5037757;28;20823;-50
2023/10/13 14:52:31;;;;;;;28.20;15.32;;;;;;;;;;5048289;28;20465;-49
2023/10/13 14:54:57;;;;;;;25.50;13.70;;;;;;;;;;5048291;28;20028;-55
2023/10/13 14:57:27;;;;;;;26.52;15.73;;;;;;;;;;5045652;28;20076;-52
2023/10/13 14:59:57;;;;;;;26.65;16.98;;;;;;;;;;5028006;28;20064;-54
2023/10/13 15:02:23;;;;;;;19.55;14.43;;;;;;;;;;5028053;28;20411;-52
2023/10/13 15:04:49;;;;;;;22.55;14.48;;;;;;;;;;5027977;28;20057;-53
2023/10/13 15:07:17;;;;;;;22.95;14.73;;;;;;;;;;5027682;28;20079;-52
2023/10/13 15:09:43;;;;;;;23.13;15.43;;;;;;;;;;5027883;28;20349;-55
2023/10/13 15:12:10;;;;;;;23.27;14.13;;;;;;;;;;5027794;28;20549;-51
2023/10/13 15:14:37;;;;;;;21.08;13.82;;;;;;;;;;5028182;28;20048;-50
2023/10/13 15:17:05;;;;;;;25.85;14.82;;;;;;;;;;5028687;28;20080;-54
2023/10/13 15:19:35;;;;;;;22.45;15.80;;;;;;;;;;5029247;28;20477;-50
2023/10/13 15:22:02;;;;;;;30.75;14.77;;;;;;;;;;5038993;28;20110;-51
2023/10/13 15:24:28;;;;;;;25.85;14.57;;;;;;;;;;5047624;28;20044;-50
2023/10/13 15:27:02;;;;;;;22.17;14.48;;;;;;;;;;5047691;28;20025;-54
2023/10/13 15:29:35;;;;;;;24.73;14.07;;;;;;;;;;5045036;28;20044;-53
2023/10/13 15:34:28;;;;;;;24.75;14.43;;;;;;;;;;5042219;28;20040;-56
2023/10/13 15:36:55;;;;;;;23.48;14.57;;;;;;;;;;5050434;28;20042;-52
2023/10/13 15:39:28;;;;;;;23.42;13.93;;;;;;;;;;5042561;28;20017;-50
2023/10/13 15:41:57;;;;;;;21.88;13.45;;;;;;;;;;5050408;28;20483;-55
2023/10/13 15:44:24;;;;;;;24.13;14.05;;;;;;;;;;5050690;28;20024;-52
2023/10/13 15:46:53;;;;;;;25.23;14.68;;;;;;;;;;5050430;28;20029;-53
2023/10/13 15:49:19;;;;;;;22.25;12.60;;;;;;;;;;5050225;28;20079;-51
2023/10/13 15:51:45;;;;;;;25.58;14.57;;;;;;;;;;5049807;28;20107;-52
2023/10/13 15:54:14;;;;;;;23.52;13.85;;;;;;;;;;5031880;28;20437;-48
2023/10/13 15:56:48;;;;;;;21.08;12.82;;;;;;;;;;5032494;28;20032;-53
2023/10/13 15:59:14;;;;;;;31.65;13.32;;;;;;;;;;5050586;28;20022;-51
2023/10/13 16:01:41;;;;;;;24.42;14.02;;;;;;;;;;5050901;28;20033;-56
2023/10/13 16:04:10;;;;;;;22.23;13.05;;;;;;;;;;5051143;28;20040;-53
2023/10/13 16:06:40;;;;;;;24.02;13.23;;;;;;;;;;5029060;28;20502;-54
2023/10/13 16:09:13;;;;;;;28.05;14.15;;;;;;;;;;5050237;28;20033;-50
2023/10/13 16:11:40;;;;;;;20.55;12.63;;;;;;;;;;5049367;28;20418;-50
2023/10/13 16:14:10;;;;;;;22.90;12.52;;;;;;;;;;5049933;28;20049;-49
2023/10/13 16:16:36;;;;;;;19.98;12.68;;;;;;;;;;5039042;28;20108;-50
2023/10/13 16:19:06;;;;;;;20.08;12.98;;;;;;;;;;4675872;28;9999591;-48
2023/10/13 16:21:39;;;;;;;20.58;13.23;;;;;;;;;;5007967;28;20395;-49
2023/10/13 16:24:05;;;;;;;22.67;12.95;;;;;;;;;;5008655;28;20028;-53
2023/10/13 16:26:31;;;;;;;20.65;13.43;;;;;;;;;;5009691;28;20071;-51
2023/10/13 16:28:58;;;;;;;24.05;13.32;;;;;;;;;;5020110;28;20033;-50
2023/10/13 16:31:27;;;;;;;18.98;13.10;;;;;;;;;;5026807;28;20484;-51
2023/10/13 16:34:01;;;;;;;19.23;12.80;;;;;;;;;;5025771;28;20025;-52
2023/10/13 16:36:28;;;;;;;28.33;13.02;;;;;;;;;;5025906;28;20022;-50
2023/10/13 16:38:57;;;;;;;20.83;13.23;;;;;;;;;;5020885;28;20084;-50
2023/10/13 16:41:24;;;;;;;20.38;12.85;;;;;;;;;;5026046;28;20560;-54
2023/10/13 16:43:50;;;;;;;21.98;13.70;;;;;;;;;;5025747;28;20049;-52
2023/10/13 16:46:17;;;;;;;21.73;14.88;;;;;;;;;;5024379;28;20051;-55
2023/10/13 16:51:19;;;;;;;22.60;12.32;;;;;;;;;;5172520;22;20087;-47
2023/10/13 16:53:51;;;;;;;19.10;13.10;;;;;;;;;;4698858;28;10000860;-48
2023/10/13 16:56:17;;;;;;;19.10;13.13;;;;;;;;;;5040165;28;20031;-50
2023/10/13 16:58:44;;;;;;;23.60;13.60;;;;;;;;;;5046283;28;20076;-51
2023/10/13 17:01:13;;;;;;;20.75;13.25;;;;;;;;;;5047624;28;20027;-53
2023/10/13 17:03:40;;;;;;;25.05;14.55;;;;;;;;;;5035737;28;20040;-52
2023/10/13 17:06:07;;;;;;;20.80;13.35;;;;;;;;;;5025744;28;20144;-51
2023/10/13 17:08:36;;;;;;;22.73;13.30;;;;;;;;;;5034015;28;20040;-47
2023/10/13 17:11:12;;;;;;;20.80;13.20;;;;;;;;;;5047033;28;20478;-48
2023/10/13 17:13:41;;;;;;;22.90;13.75;;;;;;;;;;5048784;28;20025;-50
2023/10/13 17:16:17;;;;;;;23.10;13.20;;;;;;;;;;5048662;28;20025;-51
2023/10/13 17:18:43;;;;;;;22.00;13.73;;;;;;;;;;5041614;28;20021;-52
2023/10/13 17:21:17;;;;;;;25.77;15.13;;;;;;;;;;5048993;28;20037;-51
2023/10/13 17:23:43;;;;;;;19.10;13.52;;;;;;;;;;5049949;28;20017;-51
2023/10/13 17:26:11;;;;;;;19.30;13.07;;;;;;;;;;4684773;28;10000331;-52
2023/10/13 17:28:37;;;;;;;23.95;13.60;;;;;;;;;;5037185;28;20033;-51
2023/10/13 17:31:03;;;;;;;24.00;14.27;;;;;;;;;;5026659;28;20044;-50
2023/10/13 17:33:29;;;;;;;23.02;15.13;;;;;;;;;;5044986;28;20036;-46
2023/10/13 17:35:55;;;;;;;21.92;14.52;;;;;;;;;;5051391;28;20389;-48
2023/10/13 17:38:21;;;;;;;22.55;14.30;;;;;;;;;;5045636;28;20030;-49
2023/10/13 17:40:47;;;;;;;26.63;15.00;;;;;;;;;;5039191;28;20108;-48
2023/10/13 17:43:13;;;;;;;23.00;14.25;;;;;;;;;;5032691;28;20504;-47
2023/10/13 17:45:40;;;;;;;23.35;14.10;;;;;;;;;;5039190;28;20439;-49
2023/10/13 17:48:13;;;;;;;21.94;14.11;;;;;;;;;;4971558;28;10000774;-51
2023/10/13 17:50:39;;;;;;;21.33;14.35;;;;;;;;;;5045694;28;20242;-48
2023/10/13 17:53:05;;;;;;;21.60;13.27;;;;;;;;;;5052090;28;20041;-51
2023/10/13 17:55:32;;;;;;;21.35;13.95;;;;;;;;;;5051851;28;20041;-51
2023/10/13 17:57:58;;;;;;;21.17;13.43;;;;;;;;;;5044631;28;20030;-50